createdAt,value
2022-10-27T00:01:23.557Z,4.20
2022-10-27T00:03:52.319Z,4.10
2022-10-27T00:06:21.610Z,4.53
2022-10-27T00:08:54.063Z,4.37
2022-10-27T00:11:22.861Z,4.53
2022-10-27T00:13:50.897Z,4.32
2022-10-27T00:16:20.013Z,4.07
2022-10-27T00:18:48.616Z,4.75
2022-10-27T00:21:20.464Z,3.58
2022-10-27T00:23:51.120Z,3.80
2022-10-27T00:26:22.083Z,3.92
2022-10-27T00:28:50.671Z,4.82
2022-10-27T00:31:23.630Z,3.90
2022-10-27T00:33:52.433Z,4.32
2022-10-27T00:36:23.377Z,4.33
2022-10-27T00:38:55.702Z,4.60
2022-10-27T00:41:37.117Z,3.95
2022-10-27T00:44:37.262Z,3.47
2022-10-27T00:47:17.336Z,3.83
2022-10-27T00:50:06.699Z,3.78
2022-10-27T00:52:48.397Z,3.80
2022-10-27T00:55:21.859Z,4.47
2022-10-27T00:57:56.665Z,3.55
2022-10-27T01:00:25.715Z,3.72
2022-10-27T01:02:54.247Z,3.47
2022-10-27T01:05:28.576Z,4.03
2022-10-27T01:08:00.776Z,3.73
2022-10-27T01:10:29.616Z,4.07
2022-10-27T01:12:59.095Z,4.20
2022-10-27T01:15:46.119Z,4.00
2022-10-27T01:18:20.829Z,3.80
2022-10-27T01:21:04.220Z,4.17
2022-10-27T01:23:32.912Z,3.60
2022-10-27T01:26:36.395Z,3.97
2022-10-27T01:29:43.126Z,4.13
2022-10-27T01:32:29.505Z,3.70
2022-10-27T01:35:09.380Z,4.60
2022-10-27T01:38:01.217Z,3.92
2022-10-27T01:40:43.733Z,4.32
2022-10-27T01:43:22.314Z,4.40
2022-10-27T01:45:52.134Z,4.32
2022-10-27T01:48:21.671Z,4.87
2022-10-27T01:51:01.302Z,4.20
2022-10-27T01:53:46.012Z,4.25
2022-10-27T01:56:55.250Z,5.00
2022-10-27T01:59:55.210Z,4.40
2022-10-27T02:02:44.586Z,4.55
2022-10-27T02:05:36.638Z,4.53
2022-10-27T02:08:19.921Z,4.30
2022-10-27T02:11:05.064Z,4.50
2022-10-27T02:13:36.406Z,3.92
2022-10-27T02:16:09.327Z,4.47
2022-10-27T02:18:43.512Z,3.90
2022-10-27T02:21:16.138Z,4.73
2022-10-27T02:23:44.678Z,4.20
2022-10-27T02:26:23.264Z,4.10
2022-10-27T02:28:58.590Z,4.18
2022-10-27T02:31:32.235Z,3.33
2022-10-27T02:34:01.147Z,4.07
2022-10-27T02:36:29.716Z,3.63
2022-10-27T02:38:58.255Z,4.57
2022-10-27T02:41:26.557Z,4.03
2022-10-27T02:43:56.273Z,4.35
2022-10-27T02:46:25.207Z,4.40
2022-10-27T02:48:53.034Z,4.43
2022-10-27T02:51:21.664Z,4.03
2022-10-27T02:53:49.813Z,4.25
2022-10-27T02:56:18.078Z,4.13
2022-10-27T02:58:46.287Z,4.07
2022-10-27T03:01:14.796Z,4.20
2022-10-27T03:03:43.679Z,4.25
2022-10-27T03:06:12.649Z,4.22
2022-10-27T03:08:40.715Z,5.35
2022-10-27T03:11:09.413Z,4.20
2022-10-27T03:13:37.616Z,4.60
2022-10-27T03:16:06.012Z,4.50
2022-10-27T03:18:34.277Z,4.28
2022-10-27T03:21:02.822Z,4.32
2022-10-27T03:23:30.758Z,5.60
2022-10-27T03:26:00.864Z,4.40
2022-10-27T03:28:35.657Z,4.00
2022-10-27T03:31:05.292Z,4.15
2022-10-27T03:33:34.097Z,4.82
2022-10-27T03:36:02.324Z,4.38
2022-10-27T03:38:30.468Z,4.18
2022-10-27T03:40:59.210Z,4.57
2022-10-27T03:43:29.380Z,4.00
2022-10-27T03:46:00.865Z,4.30
2022-10-27T03:48:29.644Z,4.75
2022-10-27T03:50:57.682Z,4.90
2022-10-27T03:53:26.323Z,4.83
2022-10-27T03:55:54.949Z,4.73
2022-10-27T03:58:23.524Z,4.75
2022-10-27T04:00:52.204Z,5.13
2022-10-27T04:03:21.328Z,4.70
2022-10-27T04:05:52.561Z,4.80
2022-10-27T04:08:21.243Z,4.73
2022-10-27T04:10:49.620Z,4.53
2022-10-27T04:13:18.492Z,4.88
2022-10-27T04:15:46.987Z,5.15
2022-10-27T04:18:15.127Z,4.75
2022-10-27T04:20:43.137Z,5.50
2022-10-27T04:23:11.332Z,4.88
2022-10-27T04:25:39.548Z,4.53
2022-10-27T04:28:09.689Z,4.85
2022-10-27T04:30:38.444Z,4.75
2022-10-27T04:33:06.665Z,4.27
2022-10-27T04:38:11.188Z,4.10
2022-10-27T04:40:39.978Z,3.95
2022-10-27T04:43:10.285Z,4.65
2022-10-27T04:45:39.521Z,4.53
2022-10-27T04:48:07.728Z,4.30
2022-10-27T04:50:35.956Z,3.90
2022-10-27T04:53:04.901Z,4.60
2022-10-27T04:55:34.370Z,4.20
2022-10-27T04:58:05.500Z,4.63
2022-10-27T05:00:37.591Z,4.20
2022-10-27T05:03:05.610Z,3.92
2022-10-27T05:05:33.729Z,4.30
2022-10-27T05:08:03.809Z,4.05
2022-10-27T05:10:34.096Z,4.22
2022-10-27T05:13:02.172Z,4.30
2022-10-27T05:15:30.495Z,4.20
2022-10-27T05:17:58.932Z,3.92
2022-10-27T05:20:27.487Z,5.25
2022-10-27T05:22:55.780Z,4.60
2022-10-27T05:25:23.869Z,3.90
2022-10-27T05:27:52.475Z,3.97
2022-10-27T05:30:20.694Z,4.53
2022-10-27T05:32:50.672Z,4.93
2022-10-27T05:35:18.701Z,4.80
2022-10-27T05:37:49.935Z,4.53
2022-10-27T05:40:18.616Z,4.67
2022-10-27T05:42:53.109Z,3.90
2022-10-27T05:45:24.309Z,5.03
2022-10-27T05:48:07.637Z,4.28
2022-10-27T05:50:36.549Z,4.32
2022-10-27T05:53:04.795Z,4.80
2022-10-27T05:55:34.519Z,4.30
2022-10-27T05:58:06.598Z,4.47
2022-10-27T06:00:37.587Z,4.53
2022-10-27T06:03:08.261Z,3.70
2022-10-27T06:05:37.827Z,3.83
2022-10-27T06:08:08.491Z,4.60
2022-10-27T06:10:36.682Z,4.30
2022-10-27T06:13:06.853Z,4.13
2022-10-27T06:15:35.537Z,4.03
2022-10-27T06:18:04.002Z,3.90
2022-10-27T06:20:32.278Z,4.67
2022-10-27T06:23:00.609Z,4.53
2022-10-27T06:25:31.794Z,4.13
2022-10-27T06:27:59.847Z,3.75
2022-10-27T06:30:27.747Z,3.88
2022-10-27T06:32:56.037Z,3.53
2022-10-27T06:35:24.786Z,4.65
2022-10-27T06:37:52.785Z,4.20
2022-10-27T06:40:21.734Z,6.50
2022-10-27T06:43:09.366Z,7.47
2022-10-27T06:45:41.030Z,8.43
2022-10-27T06:48:11.271Z,9.20
2022-10-27T06:50:39.219Z,11.65
2022-10-27T06:53:07.197Z,11.27
2022-10-27T06:55:35.304Z,11.40
2022-10-27T06:58:03.311Z,11.13
2022-10-27T07:00:31.668Z,11.10
2022-10-27T07:02:59.989Z,9.20
2022-10-27T07:05:28.121Z,8.18
2022-10-27T07:07:56.570Z,8.07
2022-10-27T07:10:24.871Z,7.20
2022-10-27T07:12:54.306Z,6.30
2022-10-27T07:15:23.661Z,6.43
2022-10-27T07:18:03.243Z,5.65
2022-10-27T07:20:33.976Z,5.75
2022-10-27T07:23:02.468Z,5.43
2022-10-27T07:25:31.654Z,5.17
2022-10-27T07:28:03.390Z,5.50
2022-10-27T07:30:38.891Z,5.60
2022-10-27T07:33:07.136Z,5.35
2022-10-27T07:35:35.240Z,4.95
2022-10-27T07:38:03.440Z,4.93
2022-10-27T07:40:33.134Z,5.43
2022-10-27T07:43:06.531Z,4.97
2022-10-27T07:45:39.399Z,4.93
2022-10-27T07:48:12.592Z,4.57
2022-10-27T07:50:41.610Z,4.97
2022-10-27T07:53:10.005Z,4.60
2022-10-27T07:55:38.659Z,4.70
2022-10-27T07:58:12.496Z,5.10
2022-10-27T08:00:43.588Z,4.40
2022-10-27T08:03:17.498Z,4.40
2022-10-27T08:05:46.561Z,4.10
2022-10-27T08:08:16.062Z,4.60
2022-10-27T08:10:45.755Z,4.90
2022-10-27T08:13:17.067Z,5.03
2022-10-27T08:15:45.223Z,4.95
2022-10-27T08:18:13.766Z,4.63
2022-10-27T08:20:45.428Z,4.53
2022-10-27T08:23:16.505Z,5.00
2022-10-27T08:25:44.941Z,4.55
2022-10-27T08:28:14.245Z,4.32
2022-10-27T08:30:50.627Z,4.80
2022-10-27T08:33:23.906Z,4.82
2022-10-27T08:35:52.265Z,5.00
2022-10-27T08:38:20.375Z,5.85
2022-10-27T08:40:54.449Z,5.00
2022-10-27T08:43:37.539Z,4.63
2022-10-27T08:46:30.755Z,4.82
2022-10-27T08:49:05.979Z,4.60
2022-10-27T08:51:36.094Z,6.10
2022-10-27T08:54:06.429Z,6.07
2022-10-27T08:56:40.686Z,5.30
2022-10-27T08:59:19.398Z,5.38
2022-10-27T09:02:18.794Z,5.88
2022-10-27T09:05:13.738Z,5.17
2022-10-27T09:08:19.359Z,5.43
2022-10-27T09:11:11.540Z,4.85
2022-10-27T09:13:51.877Z,5.00
2022-10-27T09:16:34.917Z,5.20
2022-10-27T09:19:06.184Z,4.90
2022-10-27T09:21:36.967Z,5.47
2022-10-27T09:24:14.104Z,4.68
2022-10-27T09:26:44.202Z,4.60
2022-10-27T09:29:23.718Z,5.22
2022-10-27T09:32:17.788Z,5.05
2022-10-27T09:35:02.166Z,5.53
2022-10-27T09:37:32.911Z,4.57
2022-10-27T09:40:01.358Z,5.32
2022-10-27T09:42:31.106Z,4.90
2022-10-27T09:45:01.575Z,5.00
2022-10-27T09:47:35.874Z,5.23
2022-10-27T09:50:08.149Z,5.50
2022-10-27T09:52:44.241Z,5.35
2022-10-27T09:55:12.881Z,5.07
2022-10-27T09:57:43.507Z,5.20
2022-10-27T10:00:17.590Z,5.60
2022-10-27T10:03:07.721Z,5.35
2022-10-27T10:05:38.228Z,4.88
2022-10-27T10:08:25.861Z,5.45
2022-10-27T10:10:55.375Z,5.43
2022-10-27T10:13:24.320Z,5.80
2022-10-27T10:16:13.848Z,6.80
2022-10-27T10:19:00.795Z,8.07
2022-10-27T10:21:48.809Z,7.90
2022-10-27T10:24:24.172Z,7.93
2022-10-27T10:26:56.379Z,7.70
2022-10-27T10:29:46.903Z,7.03
2022-10-27T10:32:22.272Z,8.15
2022-10-27T10:34:53.635Z,7.35
2022-10-27T10:37:41.606Z,7.70
2022-10-27T10:40:30.607Z,6.67
2022-10-27T10:43:13.522Z,7.10
2022-10-27T10:45:50.618Z,6.78
2022-10-27T10:48:33.391Z,7.40
2022-10-27T10:51:02.106Z,6.50
2022-10-27T10:53:40.781Z,6.10
2022-10-27T10:56:22.331Z,6.50
2022-10-27T10:59:02.951Z,6.57
2022-10-27T11:01:44.017Z,6.22
2022-10-27T11:04:24.155Z,6.40
2022-10-27T11:07:24.321Z,6.03
2022-10-27T11:10:15.828Z,6.43
2022-10-27T11:12:48.248Z,6.45
2022-10-27T11:15:23.392Z,7.00
2022-10-27T11:17:54.540Z,5.57
2022-10-27T11:20:27.780Z,6.37
2022-10-27T11:22:58.098Z,6.50
2022-10-27T11:25:33.256Z,6.50
2022-10-27T11:28:17.712Z,6.10
2022-10-27T11:31:23.787Z,6.65
2022-10-27T11:34:23.645Z,6.23
2022-10-27T11:36:51.739Z,6.10
2022-10-27T11:39:26.367Z,6.57
2022-10-27T11:42:13.418Z,7.03
2022-10-27T11:44:58.250Z,6.75
2022-10-27T11:47:33.242Z,7.37
2022-10-27T11:50:12.870Z,6.75
2022-10-27T11:52:45.875Z,7.07
2022-10-27T11:55:20.114Z,6.68
2022-10-27T11:57:59.325Z,7.38
2022-10-27T12:00:34.157Z,7.30
2022-10-27T12:03:11.131Z,7.05
2022-10-27T12:05:59.778Z,7.20
2022-10-27T12:08:36.767Z,7.40
2022-10-27T12:11:30.392Z,7.18
2022-10-27T12:14:32.905Z,7.60
2022-10-27T12:17:22.772Z,6.65
2022-10-27T12:19:54.792Z,7.43
2022-10-27T12:22:31.771Z,6.80
2022-10-27T12:25:08.728Z,7.60
2022-10-27T12:27:46.451Z,7.40
2022-10-27T12:30:20.916Z,6.93
2022-10-27T12:33:23.348Z,6.72
2022-10-27T12:36:14.502Z,6.32
2022-10-27T12:38:54.056Z,6.53
2022-10-27T12:41:51.226Z,5.63
2022-10-27T12:44:24.243Z,5.88
2022-10-27T12:47:07.855Z,5.80
2022-10-27T12:50:09.808Z,5.78
2022-10-27T12:52:51.664Z,5.70
2022-10-27T12:55:44.307Z,5.30
2022-10-27T12:58:39.537Z,5.30
2022-10-27T13:01:39.804Z,5.35
2022-10-27T13:04:49.310Z,5.07
2022-10-27T13:07:57.360Z,5.38
2022-10-27T13:10:43.659Z,5.97
2022-10-27T13:13:27.470Z,5.73
2022-10-27T13:16:04.420Z,5.25
2022-10-27T13:19:09.467Z,5.25
2022-10-27T13:21:47.567Z,5.07
2022-10-27T13:24:32.736Z,4.95
2022-10-27T13:27:16.319Z,5.10
2022-10-27T13:29:57.469Z,5.05
2022-10-27T13:32:29.958Z,5.00
2022-10-27T13:35:01.109Z,5.47
2022-10-27T13:37:49.222Z,5.10
2022-10-27T13:40:23.153Z,4.50
2022-10-27T13:42:54.311Z,5.30
2022-10-27T13:45:28.610Z,4.80
2022-10-27T13:48:08.934Z,5.55
2022-10-27T13:50:39.557Z,5.18
2022-10-27T13:53:17.035Z,5.20
2022-10-27T13:55:54.974Z,4.90
2022-10-27T13:58:53.919Z,4.68
2022-10-27T14:01:40.932Z,5.07
2022-10-27T14:04:16.670Z,4.93
2022-10-27T14:06:47.550Z,4.63
2022-10-27T14:09:31.300Z,4.45
2022-10-27T14:14:40.217Z,4.65
2022-10-27T14:17:21.887Z,4.43
2022-10-27T14:20:02.182Z,3.77
2022-10-27T14:22:43.867Z,4.47
2022-10-27T14:25:32.216Z,5.00
2022-10-27T14:28:20.860Z,5.35
2022-10-27T14:31:09.683Z,5.28
2022-10-27T14:33:38.481Z,5.50
2022-10-27T14:36:25.340Z,4.70
2022-10-27T14:39:08.625Z,5.22
2022-10-27T14:41:39.447Z,4.97
2022-10-27T14:44:17.450Z,4.43
2022-10-27T14:46:49.006Z,4.63
2022-10-27T14:49:34.905Z,4.68
2022-10-27T14:52:08.566Z,5.05
2022-10-27T14:54:37.978Z,4.88
2022-10-27T14:57:27.760Z,5.45
2022-10-27T14:59:56.023Z,5.80
2022-10-27T15:02:26.020Z,6.07
2022-10-27T15:04:54.331Z,5.50
2022-10-27T15:07:24.419Z,5.82
2022-10-27T15:09:53.192Z,5.05
2022-10-27T15:12:33.377Z,5.13
2022-10-27T15:15:05.480Z,5.30
2022-10-27T15:17:37.616Z,5.57
2022-10-27T15:20:07.736Z,4.85
2022-10-27T15:22:37.361Z,5.72
2022-10-27T15:25:10.692Z,5.40
2022-10-27T15:27:39.376Z,4.82
2022-10-27T15:30:08.909Z,5.07
2022-10-27T15:32:43.498Z,5.53
2022-10-27T15:35:30.820Z,5.50
2022-10-27T15:38:00.778Z,4.97
2022-10-27T15:40:48.315Z,5.07
2022-10-27T15:43:30.999Z,4.85
2022-10-27T15:46:30.178Z,5.50
2022-10-27T15:49:04.327Z,5.15
2022-10-27T15:51:51.125Z,5.23
2022-10-27T15:54:24.883Z,5.78
2022-10-27T15:56:55.242Z,12.20
2022-10-27T15:59:29.758Z,18.58
2022-10-27T16:02:05.906Z,15.95
2022-10-27T16:04:39.604Z,13.63
2022-10-27T16:07:13.672Z,11.55
2022-10-27T16:09:46.672Z,9.77
2022-10-27T16:12:17.831Z,10.13
2022-10-27T16:14:50.904Z,8.80
2022-10-27T16:17:23.072Z,8.70
2022-10-27T16:19:52.125Z,8.47
2022-10-27T16:22:22.323Z,8.90
2022-10-27T16:24:53.608Z,7.95
2022-10-27T16:27:25.287Z,7.68
2022-10-27T16:29:59.931Z,6.35
2022-10-27T16:32:30.242Z,6.37
2022-10-27T16:34:58.724Z,5.60
2022-10-27T16:37:30.626Z,5.97
2022-10-27T16:39:59.130Z,6.07
2022-10-27T16:42:28.239Z,5.30
2022-10-27T16:44:56.424Z,5.63
2022-10-27T16:47:24.547Z,5.93
2022-10-27T16:49:54.647Z,6.43
2022-10-27T16:52:23.055Z,6.82
2022-10-27T16:54:51.459Z,7.03
2022-10-27T16:57:19.710Z,7.38
2022-10-27T16:59:47.792Z,7.27
2022-10-27T17:02:16.941Z,7.22
2022-10-27T17:04:45.113Z,6.88
2022-10-27T17:07:13.652Z,7.22
2022-10-27T17:09:41.699Z,7.63
2022-10-27T17:12:09.721Z,6.70
2022-10-27T17:14:37.780Z,6.95
2022-10-27T17:17:05.956Z,6.60
2022-10-27T17:19:33.979Z,6.90
2022-10-27T17:22:02.293Z,6.65
2022-10-27T17:24:30.201Z,6.07
2022-10-27T17:26:58.431Z,6.70
2022-10-27T17:29:27.312Z,6.20
2022-10-27T17:31:55.302Z,6.43
2022-10-27T17:34:23.318Z,6.20
2022-10-27T17:36:51.798Z,5.90
2022-10-27T17:39:19.858Z,6.87
2022-10-27T17:41:47.966Z,6.28
2022-10-27T17:44:17.267Z,6.75
2022-10-27T17:46:45.489Z,5.93
2022-10-27T17:49:13.472Z,7.03
2022-10-27T17:51:41.990Z,6.10
2022-10-27T17:54:12.848Z,5.63
2022-10-27T17:56:44.958Z,5.65
2022-10-27T17:59:16.812Z,6.45
2022-10-27T18:01:46.455Z,6.47
2022-10-27T18:04:14.617Z,7.53
2022-10-27T18:06:43.456Z,7.10
2022-10-27T18:09:13.429Z,7.13
2022-10-27T18:11:42.390Z,6.97
2022-10-27T18:14:15.976Z,6.88
2022-10-27T18:16:47.478Z,6.75
2022-10-27T18:19:17.049Z,6.53
2022-10-27T18:21:47.009Z,6.57
2022-10-27T18:24:16.848Z,6.13
2022-10-27T18:26:48.642Z,6.50
2022-10-27T18:29:19.690Z,6.57
2022-10-27T18:31:50.782Z,6.43
2022-10-27T18:34:18.833Z,6.27
2022-10-27T18:36:47.206Z,6.50
2022-10-27T18:39:17.650Z,6.63
2022-10-27T18:41:48.818Z,6.82
2022-10-27T18:44:18.044Z,7.00
2022-10-27T18:46:46.642Z,6.50
2022-10-27T18:49:16.352Z,5.40
2022-10-27T18:51:54.181Z,5.55
2022-10-27T18:54:25.090Z,5.47
2022-10-27T18:56:53.198Z,6.82
2022-10-27T18:59:21.280Z,9.50
2022-10-27T19:01:50.835Z,12.30
2022-10-27T19:04:18.794Z,8.43
2022-10-27T19:06:47.637Z,7.07
2022-10-27T19:09:15.677Z,6.35
2022-10-27T19:11:44.667Z,6.63
2022-10-27T19:14:12.956Z,5.77
2022-10-27T19:16:41.496Z,6.30
2022-10-27T19:19:12.337Z,6.32
2022-10-27T19:21:40.796Z,6.53
2022-10-27T19:24:11.807Z,5.78
2022-10-27T19:26:42.286Z,6.10
2022-10-27T19:29:10.486Z,6.30
2022-10-27T19:31:40.717Z,6.45
2022-10-27T19:34:10.539Z,5.80
2022-10-27T19:36:41.859Z,6.00
2022-10-27T19:39:11.782Z,5.30
2022-10-27T19:41:40.399Z,5.40
2022-10-27T19:44:08.840Z,6.20
2022-10-27T19:46:37.077Z,5.97
2022-10-27T19:49:08.139Z,5.15
2022-10-27T19:51:41.221Z,5.10
2022-10-27T19:54:15.171Z,5.30
2022-10-27T19:56:48.202Z,5.03
2022-10-27T19:59:20.270Z,5.30
2022-10-27T20:01:52.204Z,5.70
2022-10-27T20:04:21.786Z,5.75
2022-10-27T20:06:50.283Z,5.63
2022-10-27T20:09:20.864Z,5.80
2022-10-27T20:11:50.303Z,5.87
2022-10-27T20:14:18.771Z,7.15
2022-10-27T20:16:50.615Z,6.95
2022-10-27T20:19:21.983Z,6.53
2022-10-27T20:21:51.162Z,6.93
2022-10-27T20:24:20.905Z,6.70
2022-10-27T20:29:24.095Z,6.30
2022-10-27T20:31:55.772Z,5.70
2022-10-27T20:34:24.033Z,5.70
2022-10-27T20:36:54.251Z,5.87
2022-10-27T20:39:23.121Z,5.78
2022-10-27T20:41:51.671Z,6.03
2022-10-27T20:44:21.002Z,5.82
2022-10-27T20:46:49.403Z,5.20
2022-10-27T20:49:17.478Z,5.13
2022-10-27T20:51:45.767Z,5.30
2022-10-27T20:54:17.285Z,6.65
2022-10-27T20:56:46.299Z,7.20
2022-10-27T20:59:14.631Z,7.13
2022-10-27T21:01:43.865Z,7.13
2022-10-27T21:04:18.111Z,7.53
2022-10-27T21:06:48.181Z,7.15
2022-10-27T21:09:19.673Z,7.35
2022-10-27T21:11:48.988Z,7.13
2022-10-27T21:14:17.054Z,6.88
2022-10-27T21:16:47.313Z,6.77
2022-10-27T21:19:18.600Z,6.32
2022-10-27T21:21:46.715Z,6.57
2022-10-27T21:24:17.186Z,6.85
2022-10-27T21:26:46.826Z,6.90
2022-10-27T21:29:15.113Z,6.50
2022-10-27T21:31:43.698Z,6.63
2022-10-27T21:34:14.625Z,6.97
2022-10-27T21:36:42.743Z,6.38
2022-10-27T21:39:10.740Z,6.32
2022-10-27T21:41:38.972Z,6.10
2022-10-27T21:44:07.946Z,6.27
2022-10-27T21:46:36.207Z,6.93
2022-10-27T21:49:04.165Z,6.80
2022-10-27T21:51:32.554Z,6.22
2022-10-27T21:54:02.632Z,6.10
2022-10-27T21:56:35.415Z,6.68
2022-10-27T21:59:04.087Z,6.10
2022-10-27T22:01:32.181Z,5.73
2022-10-27T22:04:00.349Z,5.03
2022-10-27T22:06:33.890Z,5.90
2022-10-27T22:09:02.500Z,6.60
2022-10-27T22:11:38.787Z,6.53
2022-10-27T22:14:06.980Z,6.17
2022-10-27T22:16:35.807Z,5.90
2022-10-27T22:19:05.753Z,5.75
2022-10-27T22:21:36.833Z,5.93
2022-10-27T22:24:06.169Z,5.43
2022-10-27T22:26:34.850Z,5.27
2022-10-27T22:29:03.091Z,5.88
2022-10-27T22:31:33.162Z,4.90
2022-10-27T22:34:02.794Z,5.60
2022-10-27T22:36:31.297Z,5.65
2022-10-27T22:39:01.681Z,5.03
2022-10-27T22:41:30.988Z,5.17
2022-10-27T22:43:59.568Z,5.57
2022-10-27T22:46:30.341Z,5.60
2022-10-27T22:48:58.973Z,6.35
2022-10-27T22:51:28.462Z,5.50
2022-10-27T22:53:57.753Z,6.17
2022-10-27T22:56:28.761Z,5.63
2022-10-27T22:58:59.145Z,5.40
2022-10-27T23:01:30.023Z,5.03
2022-10-27T23:04:00.753Z,5.22
2022-10-27T23:06:31.089Z,5.53
2022-10-27T23:09:03.304Z,4.70
2022-10-27T23:11:34.868Z,5.15
2022-10-27T23:14:04.158Z,5.30
2022-10-27T23:16:33.714Z,5.65
2022-10-27T23:19:02.586Z,4.78
2022-10-27T23:21:32.193Z,5.03
2022-10-27T23:24:01.408Z,5.00
2022-10-27T23:26:35.122Z,5.10
2022-10-27T23:29:06.278Z,5.65
2022-10-27T23:31:35.751Z,5.97
2022-10-27T23:34:05.952Z,5.40
2022-10-27T23:36:36.829Z,4.60
2022-10-27T23:39:05.522Z,4.88
2022-10-27T23:41:34.620Z,5.00
2022-10-27T23:44:03.538Z,5.05
2022-10-27T23:46:31.755Z,5.47
2022-10-27T23:49:00.520Z,5.83
2022-10-27T23:51:29.593Z,4.57
2022-10-27T23:53:58.038Z,4.93
2022-10-27T23:56:26.702Z,5.07
2022-10-27T23:58:55.781Z,4.90
